Time;durP1;ratioP1;P1;durP2;ratioP2;P2;SDS_P1;SDS_P2;PMS_P1;PMS_P2;Temp;Humidity;BMP_temperature;BMP_pressure;BME280_temperature;BME280_humidity;BME280_pressure;Samples;Min_cycle;Max_cycle;Signal;HPM_P1;HPM_P2
2023/03/15 00:00:32;;;;;;;3.75;2.35;;;6.10;79.20;;;;;;5123150;27;20314;-69
2023/03/15 00:02:59;;;;;;;2.80;2.00;;;6.10;79.70;;;;;;5135161;27;20219;-69
2023/03/15 00:05:25;;;;;;;2.80;1.45;;;6.10;80.00;;;;;;5135906;27;20287;-70
2023/03/15 00:07:52;;;;;;;2.55;1.25;;;6.10;79.50;;;;;;5132785;27;20176;-69
2023/03/15 00:10:21;;;;;;;5.53;1.77;;;6.10;79.50;;;;;;5136093;27;20578;-69
2023/03/15 00:12:47;;;;;;;2.20;1.08;;;6.10;80.00;;;;;;5133480;27;20278;-70
2023/03/15 00:15:15;;;;;;;2.50;1.23;;;6.10;80.30;;;;;;5135077;27;20203;-71
2023/03/15 00:17:43;;;;;;;3.17;1.25;;;6.20;80.50;;;;;;5133429;27;20203;-70
2023/03/15 00:20:13;;;;;;;5.57;1.10;;;6.10;78.70;;;;;;5134522;27;20192;-70
2023/03/15 00:22:40;;;;;;;2.97;0.80;;;6.10;78.20;;;;;;5133091;27;20219;-69
2023/03/15 00:25:08;;;;;;;1.98;0.80;;;6.10;78.10;;;;;;5133603;27;20274;-69
2023/03/15 00:27:36;;;;;;;1.80;0.80;;;6.00;77.50;;;;;;5130823;27;20296;-69
2023/03/15 00:30:03;;;;;;;3.53;0.90;;;6.00;77.80;;;;;;5135262;27;20240;-70
2023/03/15 00:32:31;;;;;;;1.90;0.70;;;5.90;78.30;;;;;;5134926;27;20180;-69
2023/03/15 00:34:58;;;;;;;3.72;0.90;;;5.90;78.80;;;;;;5135141;27;20291;-70
2023/03/15 00:37:25;;;;;;;3.35;0.80;;;6.00;78.80;;;;;;5134946;27;20180;-70
2023/03/15 00:39:54;;;;;;;1.90;0.80;;;5.90;79.50;;;;;;5135362;27;20198;-70
2023/03/15 00:42:26;;;;;;;2.33;1.00;;;5.90;79.60;;;;;;5131320;27;20180;-70
2023/03/15 00:44:55;;;;;;;3.38;1.02;;;5.90;80.40;;;;;;5135028;27;20211;-70
2023/03/15 00:47:22;;;;;;;7.13;2.03;;;5.90;80.80;;;;;;5133299;27;20207;-70
2023/03/15 00:49:49;;;;;;;3.03;1.38;;;6.00;81.20;;;;;;5135446;27;20183;-70
2023/03/15 00:52:16;;;;;;;3.92;1.30;;;6.00;81.00;;;;;;5133733;27;20572;-70
2023/03/15 00:54:43;;;;;;;2.47;1.25;;;6.00;81.10;;;;;;5135146;27;20223;-70
2023/03/15 00:57:10;;;;;;;2.35;0.85;;;6.00;81.40;;;;;;5133400;27;20183;-69
2023/03/15 00:59:37;;;;;;;3.35;1.15;;;6.00;81.30;;;;;;5135042;27;20271;-70
2023/03/15 01:02:06;;;;;;;2.03;0.80;;;6.10;80.70;;;;;;5131503;27;20219;-70
2023/03/15 01:04:33;;;;;;;1.60;0.60;;;6.20;80.50;;;;;;5135147;27;20184;-69
2023/03/15 01:07:00;;;;;;;2.45;0.80;;;6.20;80.30;;;;;;5133494;27;20208;-69
2023/03/15 01:09:27;;;;;;;3.08;1.10;;;6.20;80.00;;;;;;5134771;27;20220;-69
2023/03/15 01:11:53;;;;;;;2.22;0.77;;;6.30;80.10;;;;;;5131640;27;20637;-69
2023/03/15 01:14:20;;;;;;;2.45;0.90;;;6.20;80.30;;;;;;5134901;27;20277;-71
2023/03/15 01:16:47;;;;;;;4.80;1.20;;;6.20;80.30;;;;;;5132430;27;20279;-70
2023/03/15 01:19:16;;;;;;;2.85;1.00;;;6.10;80.90;;;;;;5135159;27;20709;-69
2023/03/15 01:21:46;;;;;;;4.00;0.80;;;6.00;82.00;;;;;;5133031;27;20192;-71
2023/03/15 01:24:16;;;;;;;2.20;0.80;;;6.00;83.00;;;;;;5134768;27;20187;-70
2023/03/15 01:26:43;;;;;;;1.60;0.50;;;5.90;83.80;;;;;;5131688;27;20311;-70
2023/03/15 01:29:10;;;;;;;2.47;0.95;;;5.90;84.10;;;;;;5134835;27;20704;-69
2023/03/15 01:31:37;;;;;;;1.90;0.75;;;5.80;84.30;;;;;;5132235;27;20183;-69
2023/03/15 01:34:04;;;;;;;1.60;0.60;;;5.80;84.50;;;;;;5134090;27;20216;-69
2023/03/15 01:36:32;;;;;;;1.80;0.50;;;5.70;84.60;;;;;;5132580;27;20230;-69
2023/03/15 01:38:59;;;;;;;2.85;1.80;;;5.70;84.80;;;;;;5131772;27;20650;-70
2023/03/15 01:41:27;;;;;;;3.05;0.70;;;5.70;84.90;;;;;;5132624;27;20191;-69
2023/03/15 01:43:54;;;;;;;1.60;0.60;;;5.60;85.30;;;;;;5131452;27;20215;-70
2023/03/15 01:46:26;;;;;;;2.70;0.70;;;5.60;85.40;;;;;;5133931;27;20214;-69
2023/03/15 01:48:58;;;;;;;1.73;0.60;;;5.60;86.10;;;;;;5131193;27;20190;-69
2023/03/15 01:51:30;;;;;;;1.60;0.50;;;5.60;85.60;;;;;;5134366;27;20188;-69
2023/03/15 01:54:02;;;;;;;1.70;0.60;;;5.50;84.70;;;;;;5131641;27;20184;-71
2023/03/15 01:56:31;;;;;;;2.58;0.70;;;5.50;84.80;;;;;;5133736;27;20215;-69
2023/03/15 01:59:00;;;;;;;1.60;0.60;;;5.50;84.90;;;;;;5132318;27;20183;-69
2023/03/15 02:01:28;;;;;;;1.50;0.60;;;5.50;84.10;;;;;;5133566;27;20230;-72
2023/03/15 02:04:00;;;;;;;1.80;0.70;;;5.50;83.60;;;;;;5131146;27;20268;-71
2023/03/15 02:06:27;;;;;;;1.77;0.60;;;5.50;83.10;;;;;;5133006;27;20302;-70
2023/03/15 02:08:57;;;;;;;1.63;0.60;;;5.60;83.30;;;;;;5132803;27;20240;-69
2023/03/15 02:11:27;;;;;;;1.95;0.80;;;5.60;83.10;;;;;;5133310;27;20187;-69
2023/03/15 02:13:56;;;;;;;1.60;0.60;;;5.60;83.30;;;;;;5130568;27;20207;-74
2023/03/15 02:16:25;;;;;;;2.03;0.70;;;5.60;83.50;;;;;;5128782;27;20194;-70
2023/03/15 02:18:52;;;;;;;1.60;0.70;;;5.60;83.70;;;;;;5131037;27;20203;-69
2023/03/15 02:21:32;;;;;;;1.80;0.70;;;5.60;84.00;;;;;;5133670;27;20607;-70
2023/03/15 02:24:10;;;;;;;1.65;0.55;;;5.60;84.10;;;;;;5131847;27;20661;-69
2023/03/15 02:26:44;;;;;;;1.50;0.50;;;5.60;84.40;;;;;;5133541;27;20307;-69
2023/03/15 02:29:13;;;;;;;1.60;0.70;;;5.60;84.40;;;;;;5129730;27;20547;-71
2023/03/15 02:31:40;;;;;;;2.05;0.75;;;5.60;84.80;;;;;;5131131;27;20274;-70
2023/03/15 02:34:08;;;;;;;1.50;0.60;;;5.60;84.50;;;;;;5128788;27;20190;-69
2023/03/15 02:36:36;;;;;;;1.98;0.60;;;5.50;84.70;;;;;;5133000;28;20274;-70
2023/03/15 02:39:15;;;;;;;1.60;0.60;;;5.50;84.50;;;;;;5131106;28;20241;-70
2023/03/15 02:41:45;;;;;;;1.90;0.70;;;5.50;85.20;;;;;;5132047;27;20294;-70
2023/03/15 02:44:16;;;;;;;1.83;0.60;;;5.50;85.40;;;;;;5136787;27;20222;-70
2023/03/15 02:46:45;;;;;;;1.50;0.60;;;5.50;85.70;;;;;;5136004;27;20218;-69
2023/03/15 02:49:13;;;;;;;1.60;0.60;;;5.50;86.10;;;;;;5137537;27;20298;-70
2023/03/15 02:51:39;;;;;;;1.80;0.68;;;5.40;86.10;;;;;;5133655;27;20274;-69
2023/03/15 02:54:06;;;;;;;1.90;0.95;;;5.40;86.40;;;;;;5137358;27;20287;-71
2023/03/15 02:56:33;;;;;;;2.08;0.88;;;5.40;86.30;;;;;;5135497;27;20251;-69
2023/03/15 02:59:00;;;;;;;1.98;0.70;;;5.30;86.40;;;;;;5135197;27;20610;-69
2023/03/15 03:01:30;;;;;;;1.85;0.95;;;5.20;85.30;;;;;;5132661;27;20246;-69
2023/03/15 03:03:57;;;;;;;1.70;0.82;;;5.10;83.60;;;;;;5136844;27;20226;-69
2023/03/15 03:06:24;;;;;;;2.05;1.00;;;5.00;82.60;;;;;;5134283;27;20187;-69
2023/03/15 03:08:51;;;;;;;2.05;0.80;;;5.00;82.80;;;;;;5136569;27;20187;-70
2023/03/15 03:11:18;;;;;;;3.03;1.10;;;5.00;82.00;;;;;;5132704;27;20586;-70
2023/03/15 03:13:45;;;;;;;2.00;1.30;;;5.00;82.10;;;;;;5136897;27;20283;-69
2023/03/15 03:16:12;;;;;;;2.55;1.08;;;4.90;82.00;;;;;;5136107;27;20187;-69
2023/03/15 03:18:41;;;;;;;1.80;1.00;;;4.80;82.10;;;;;;5137229;27;20282;-69
2023/03/15 03:21:08;;;;;;;1.83;0.82;;;4.80;82.70;;;;;;5135396;27;20655;-69
2023/03/15 03:23:36;;;;;;;2.15;1.05;;;4.70;83.30;;;;;;5137330;27;20472;-69
2023/03/15 03:26:11;;;;;;;2.45;1.08;;;4.60;82.90;;;;;;5134757;27;20188;-69
2023/03/15 03:28:37;;;;;;;2.10;1.00;;;4.60;81.80;;;;;;5136964;27;20250;-70
2023/03/15 03:31:05;;;;;;;2.03;1.00;;;4.50;82.10;;;;;;5133336;27;20278;-69
2023/03/15 03:33:32;;;;;;;2.30;1.05;;;4.50;82.50;;;;;;5134278;27;20184;-70
2023/03/15 03:36:03;;;;;;;1.80;1.00;;;4.50;83.10;;;;;;5136722;27;20240;-69
2023/03/15 03:38:30;;;;;;;1.75;0.85;;;4.40;82.80;;;;;;5134942;27;20188;-69
2023/03/15 03:40:56;;;;;;;2.30;0.88;;;4.30;83.20;;;;;;5136141;27;20270;-69
2023/03/15 03:43:24;;;;;;;2.47;0.95;;;4.40;82.10;;;;;;5135830;27;20692;-69
2023/03/15 03:45:51;;;;;;;2.10;1.00;;;4.30;82.40;;;;;;5135897;27;20195;-69
2023/03/15 03:48:18;;;;;;;2.20;1.00;;;4.40;82.40;;;;;;5134958;27;20216;-70
2023/03/15 03:50:45;;;;;;;2.58;1.00;;;4.30;82.70;;;;;;5135288;27;20657;-70
2023/03/15 03:53:13;;;;;;;2.00;1.20;;;4.30;83.80;;;;;;5136093;27;20278;-69
2023/03/15 03:55:41;;;;;;;2.30;1.27;;;4.30;85.30;;;;;;5133766;27;20211;-70
2023/03/15 03:58:09;;;;;;;2.10;0.90;;;4.30;85.60;;;;;;5136354;27;20215;-69
2023/03/15 04:00:36;;;;;;;2.80;1.02;;;4.20;85.80;;;;;;5130937;27;20230;-69
2023/03/15 04:03:03;;;;;;;2.13;1.13;;;4.10;86.30;;;;;;5136109;27;20188;-69
2023/03/15 04:05:30;;;;;;;3.35;0.90;;;4.10;86.10;;;;;;5133699;27;20192;-69
2023/03/15 04:07:57;;;;;;;2.10;1.00;;;4.10;85.60;;;;;;5136034;27;20642;-70
2023/03/15 04:10:26;;;;;;;3.05;1.20;;;4.10;84.00;;;;;;5133390;27;20227;-69
2023/03/15 04:12:54;;;;;;;2.10;1.13;;;4.00;82.50;;;;;;5136177;27;20210;-69
2023/03/15 04:15:22;;;;;;;2.15;1.00;;;4.00;82.20;;;;;;5133490;27;20199;-70
2023/03/15 04:17:54;;;;;;;1.83;0.98;;;4.00;82.00;;;;;;5136270;27;20323;-69
2023/03/15 04:20:21;;;;;;;2.65;1.10;;;4.00;82.00;;;;;;5134430;27;20271;-69
2023/03/15 04:22:49;;;;;;;2.10;0.93;;;4.00;82.20;;;;;;5135674;27;20256;-70
2023/03/15 04:25:16;;;;;;;2.20;1.30;;;4.00;81.40;;;;;;5132970;27;20236;-73
2023/03/15 04:27:45;;;;;;;2.50;0.75;;;4.00;80.90;;;;;;5136011;27;20236;-70
2023/03/15 04:30:12;;;;;;;3.53;1.48;;;3.90;81.40;;;;;;5133580;27;20281;-70
2023/03/15 04:32:41;;;;;;;6.65;1.05;;;3.90;81.80;;;;;;5135129;27;20422;-70
2023/03/15 04:35:09;;;;;;;4.22;1.00;;;3.90;80.60;;;;;;5132761;27;20187;-70
2023/03/15 04:37:36;;;;;;;3.63;1.33;;;3.80;80.00;;;;;;5135712;27;20207;-70
2023/03/15 04:40:05;;;;;;;7.45;1.42;;;3.80;80.50;;;;;;5132598;27;20236;-70
2023/03/15 04:42:33;;;;;;;3.42;1.00;;;3.90;81.00;;;;;;5135877;27;20188;-70
2023/03/15 04:45:01;;;;;;;3.53;1.23;;;3.90;80.70;;;;;;5132788;27;20649;-70
2023/03/15 04:47:28;;;;;;;3.03;0.95;;;3.90;81.10;;;;;;5135668;27;20638;-70
2023/03/15 04:49:55;;;;;;;4.65;1.10;;;3.90;81.20;;;;;;5132757;27;20184;-70
2023/03/15 04:52:22;;;;;;;3.42;1.15;;;3.90;80.80;;;;;;5135393;27;20637;-70
2023/03/15 04:54:48;;;;;;;5.50;1.50;;;3.90;80.80;;;;;;5132040;27;20566;-70
2023/03/15 04:57:15;;;;;;;2.78;0.98;;;3.90;80.50;;;;;;5134621;27;20655;-70
2023/03/15 04:59:42;;;;;;;2.40;1.25;;;3.90;80.50;;;;;;5131110;27;20613;-70
2023/03/15 05:02:10;;;;;;;6.10;1.40;;;3.90;80.50;;;;;;5135139;27;20188;-70
2023/03/15 05:04:37;;;;;;;2.45;1.17;;;4.00;80.80;;;;;;5132694;27;20535;-70
2023/03/15 05:07:04;;;;;;;2.40;1.20;;;4.00;80.90;;;;;;5134627;27;20196;-70
2023/03/15 05:09:36;;;;;;;2.00;1.20;;;4.00;80.70;;;;;;5133667;27;20196;-70
2023/03/15 05:12:04;;;;;;;2.10;1.00;;;3.90;80.50;;;;;;5134685;27;20180;-70
2023/03/15 05:14:31;;;;;;;2.90;1.15;;;3.90;80.40;;;;;;5133070;27;20270;-70
2023/03/15 05:16:58;;;;;;;3.90;1.55;;;3.90;81.70;;;;;;5135025;27;20221;-69
2023/03/15 05:19:26;;;;;;;6.03;1.30;;;3.90;81.30;;;;;;5132245;27;20665;-70
2023/03/15 05:21:54;;;;;;;3.05;1.30;;;3.90;81.40;;;;;;5134682;27;20187;-70
2023/03/15 05:24:22;;;;;;;7.72;1.60;;;3.90;81.60;;;;;;5132153;27;20180;-70
2023/03/15 05:26:53;;;;;;;2.75;1.10;;;3.90;81.30;;;;;;5134926;27;20283;-71
2023/03/15 05:29:20;;;;;;;4.45;2.10;;;3.90;81.20;;;;;;5130916;27;20226;-71
2023/03/15 05:31:47;;;;;;;4.65;1.55;;;3.90;80.40;;;;;;5134761;27;20184;-71
2023/03/15 05:34:14;;;;;;;5.60;1.55;;;3.90;80.00;;;;;;5133264;27;20188;-70
2023/03/15 05:36:42;;;;;;;4.60;1.55;;;3.90;79.90;;;;;;5134882;27;20249;-70
2023/03/15 05:39:10;;;;;;;4.05;1.65;;;3.90;80.20;;;;;;5132200;27;20614;-81
2023/03/15 05:41:37;;;;;;;3.47;1.50;;;3.90;80.30;;;;;;5132133;27;20214;-70
2023/03/15 05:44:04;;;;;;;4.25;1.85;;;3.90;80.20;;;;;;5133836;27;20278;-70
2023/03/15 05:46:31;;;;;;;3.55;1.45;;;3.90;79.90;;;;;;5134410;27;20269;-69
2023/03/15 05:48:58;;;;;;;2.65;1.27;;;3.90;79.60;;;;;;5132242;27;20311;-69
2023/03/15 05:51:25;;;;;;;4.60;1.25;;;4.00;79.60;;;;;;5113331;28;20275;-70
2023/03/15 05:53:53;;;;;;;3.50;1.48;;;4.00;79.30;;;;;;5114112;27;20279;-76
2023/03/15 05:56:20;;;;;;;2.65;1.45;;;4.00;79.40;;;;;;5133841;27;20187;-69
2023/03/15 05:58:47;;;;;;;3.42;1.98;;;4.00;79.00;;;;;;5133583;27;20311;-69
2023/03/15 06:01:14;;;;;;;4.35;1.58;;;4.00;79.00;;;;;;5132542;27;20212;-69
2023/03/15 06:03:41;;;;;;;3.33;1.70;;;4.00;78.50;;;;;;5133399;27;20595;-72
2023/03/15 06:06:08;;;;;;;4.30;1.50;;;4.00;77.70;;;;;;5131759;27;20228;-69
2023/03/15 06:08:35;;;;;;;5.95;1.45;;;4.10;77.70;;;;;;5134066;27;20670;-76
2023/03/15 06:11:04;;;;;;;2.55;1.30;;;4.10;78.00;;;;;;5132475;27;20187;-69
2023/03/15 06:13:31;;;;;;;2.72;1.70;;;4.10;78.40;;;;;;5129057;27;20185;-69
2023/03/15 06:15:58;;;;;;;5.15;2.00;;;4.10;78.40;;;;;;5133349;27;20638;-69
2023/03/15 06:18:25;;;;;;;3.25;1.77;;;4.10;78.50;;;;;;5132356;27;20615;-69
2023/03/15 06:20:52;;;;;;;4.05;2.13;;;4.10;78.50;;;;;;5133871;27;20240;-69
2023/03/15 06:23:19;;;;;;;3.38;1.70;;;4.10;78.00;;;;;;5133857;27;20179;-69
2023/03/15 06:25:46;;;;;;;4.00;1.52;;;4.10;78.00;;;;;;5131201;27;20222;-79
2023/03/15 06:28:15;;;;;;;3.55;1.50;;;4.10;78.40;;;;;;5119346;27;20191;-71
2023/03/15 06:30:42;;;;;;;2.90;1.50;;;4.20;78.50;;;;;;5118070;27;20191;-70
2023/03/15 06:33:10;;;;;;;4.75;3.17;;;4.30;78.60;;;;;;5117261;28;20198;-70
2023/03/15 06:35:37;;;;;;;11.95;7.05;;;4.30;78.90;;;;;;5124676;27;20204;-69
2023/03/15 06:38:04;;;;;;;10.98;6.07;;;4.40;79.10;;;;;;5127158;28;20303;-73
2023/03/15 06:40:32;;;;;;;8.48;4.35;;;4.40;79.80;;;;;;5120457;28;20315;-69
2023/03/15 06:43:04;;;;;;;5.22;3.15;;;4.40;78.70;;;;;;5115571;28;20247;-80
2023/03/15 06:45:33;;;;;;;4.72;2.92;;;4.50;78.80;;;;;;5117635;28;20192;-69
2023/03/15 06:48:00;;;;;;;6.22;3.70;;;4.60;77.20;;;;;;5128933;28;20195;-69
2023/03/15 06:50:27;;;;;;;4.30;2.55;;;4.60;76.20;;;;;;5112460;28;20279;-70
2023/03/15 06:52:54;;;;;;;5.00;2.70;;;4.60;76.00;;;;;;5128404;28;20198;-70
2023/03/15 06:55:21;;;;;;;8.20;3.15;;;4.70;76.80;;;;;;5128156;28;20230;-69
2023/03/15 06:57:48;;;;;;;3.85;2.53;;;5.10;76.40;;;;;;5132185;28;20299;-73
2023/03/15 07:00:16;;;;;;;4.82;3.25;;;5.50;76.70;;;;;;5123849;28;20218;-75
2023/03/15 07:02:45;;;;;;;4.78;2.92;;;6.00;76.00;;;;;;5102632;28;20211;-73
2023/03/15 07:05:12;;;;;;;6.32;3.40;;;6.40;73.80;;;;;;5110452;28;20556;-71
2023/03/15 07:07:39;;;;;;;5.70;3.95;;;6.80;69.70;;;;;;5111428;28;20658;-72
2023/03/15 07:10:06;;;;;;;5.30;3.95;;;7.00;67.10;;;;;;5111455;28;20263;-70
2023/03/15 07:12:33;;;;;;;6.05;3.10;;;7.40;67.40;;;;;;5107580;28;20318;-71
2023/03/15 07:15:00;;;;;;;5.57;4.07;;;8.40;64.30;;;;;;5111006;28;20381;-71
2023/03/15 07:17:27;;;;;;;6.53;3.58;;;10.00;56.50;;;;;;5106259;28;20291;-71
2023/03/15 07:19:55;;;;;;;6.03;2.85;;;12.30;52.30;;;;;;5111915;28;20220;-70
2023/03/15 07:22:22;;;;;;;4.32;3.40;;;14.90;44.60;;;;;;5111464;28;20627;-71
2023/03/15 07:24:50;;;;;;;5.87;3.73;;;17.30;39.30;;;;;;5111412;28;20197;-70
2023/03/15 07:27:16;;;;;;;6.27;4.17;;;19.30;34.50;;;;;;5111148;28;20435;-71
2023/03/15 07:29:46;;;;;;;6.23;3.37;;;19.60;31.30;;;;;;5113171;28;20529;-79
2023/03/15 07:32:13;;;;;;;9.53;5.47;;;18.50;30.00;;;;;;5113489;28;20521;-80
2023/03/15 07:34:40;;;;;;;11.03;5.90;;;18.20;31.70;;;;;;5115381;28;20466;-73
2023/03/15 07:37:09;;;;;;;5.60;3.37;;;19.10;31.10;;;;;;5114215;28;20521;-70
2023/03/15 07:39:36;;;;;;;3.80;3.30;;;20.50;29.30;;;;;;5115146;28;20517;-71
2023/03/15 07:42:05;;;;;;;5.63;3.30;;;22.90;28.30;;;;;;5115979;28;20519;-71
2023/03/15 07:44:32;;;;;;;6.00;3.80;;;24.60;25.30;;;;;;5115529;28;20528;-71
2023/03/15 07:46:59;;;;;;;4.80;3.00;;;26.20;24.20;;;;;;5116390;28;20491;-71
2023/03/15 07:49:26;;;;;;;3.30;2.53;;;27.80;22.00;;;;;;5116369;28;20441;-71
2023/03/15 07:51:53;;;;;;;3.10;2.20;;;28.30;19.30;;;;;;5116419;28;20863;-71
2023/03/15 07:54:28;;;;;;;4.07;3.17;;;29.20;18.50;;;;;;5116532;28;20521;-71
2023/03/15 07:56:55;;;;;;;4.20;3.33;;;28.30;18.10;;;;;;5116360;28;20444;-71
2023/03/15 07:59:22;;;;;;;6.87;3.87;;;25.40;18.80;;;;;;5116196;28;20875;-71
2023/03/15 08:01:48;;;;;;;5.70;3.57;;;22.50;20.10;;;;;;5134437;27;20542;-73
2023/03/15 08:04:15;;;;;;;6.13;3.00;;;20.00;22.00;;;;;;5136578;27;20469;-71
2023/03/15 08:06:42;;;;;;;14.40;3.93;;;17.90;23.50;;;;;;5136422;27;20437;-71
2023/03/15 08:09:10;;;;;;;6.73;3.30;;;16.20;25.10;;;;;;5136559;27;20517;-70
2023/03/15 08:11:39;;;;;;;7.03;3.93;;;15.90;26.90;;;;;;5136531;27;20447;-70
2023/03/15 08:14:06;;;;;;;6.90;3.57;;;16.10;27.20;;;;;;5136180;27;20437;-71
2023/03/15 08:16:32;;;;;;;4.53;3.47;;;19.30;26.30;;;;;;5136295;27;20433;-71
2023/03/15 08:18:59;;;;;;;6.77;3.20;;;21.50;24.00;;;;;;5136368;27;20961;-71
2023/03/15 08:21:26;;;;;;;7.67;3.37;;;24.80;23.00;;;;;;5117446;27;20442;-71
2023/03/15 08:23:53;;;;;;;4.90;2.70;;;27.80;19.30;;;;;;5124647;27;20847;-72
2023/03/15 08:26:20;;;;;;;5.43;2.90;;;29.70;17.60;;;;;;5135913;27;20524;-72
2023/03/15 08:28:48;;;;;;;6.40;2.77;;;31.40;15.90;;;;;;5134555;27;20479;-71
2023/03/15 08:31:15;;;;;;;4.17;2.43;;;31.10;14.90;;;;;;5135603;27;20512;-73
2023/03/15 08:33:42;;;;;;;7.90;3.00;;;31.30;14.80;;;;;;5136209;27;20826;-72
2023/03/15 08:36:10;;;;;;;4.23;3.00;;;31.80;14.10;;;;;;5117378;27;20509;-73
2023/03/15 08:38:37;;;;;;;4.40;2.43;;;30.70;14.90;;;;;;5114538;28;20434;-72
2023/03/15 08:41:04;;;;;;;4.57;2.73;;;30.60;13.90;;;;;;5114722;28;20491;-72
2023/03/15 08:43:31;;;;;;;4.33;2.80;;;30.40;13.60;;;;;;5115400;28;20525;-72
2023/03/15 08:45:59;;;;;;;4.47;2.20;;;31.50;13.30;;;;;;5115146;28;20442;-72
2023/03/15 08:48:26;;;;;;;4.93;2.40;;;31.00;12.30;;;;;;5115290;28;20514;-72
2023/03/15 08:50:55;;;;;;;3.03;2.20;;;31.30;12.90;;;;;;5115148;28;20832;-72
2023/03/15 08:53:22;;;;;;;3.90;2.23;;;33.30;12.60;;;;;;5115094;28;20478;-72
2023/03/15 08:55:49;;;;;;;3.70;2.20;;;35.20;12.10;;;;;;5115431;28;20434;-72
2023/03/15 08:58:16;;;;;;;3.87;2.17;;;36.50;10.50;;;;;;5115304;28;20440;-73
2023/03/15 09:00:43;;;;;;;6.57;2.23;;;37.90;9.70;;;;;;5114455;28;20557;-72
2023/03/15 09:03:11;;;;;;;4.10;2.10;;;39.40;10.20;;;;;;5115256;28;21015;-70
2023/03/15 09:05:39;;;;;;;4.53;2.90;;;40.40;8.90;;;;;;5115181;28;20439;-71
2023/03/15 09:08:06;;;;;;;5.27;2.33;;;41.40;8.50;;;;;;5115104;28;20531;-71
2023/03/15 09:10:33;;;;;;;3.73;2.03;;;42.20;7.30;;;;;;5114975;28;20536;-71
2023/03/15 09:13:00;;;;;;;4.20;2.30;;;43.00;7.10;;;;;;5114835;28;20551;-71
2023/03/15 09:15:29;;;;;;;4.67;2.30;;;43.10;7.00;;;;;;5114794;28;20513;-71
2023/03/15 09:17:56;;;;;;;3.13;1.80;;;43.50;6.50;;;;;;5114884;28;20892;-71
2023/03/15 09:20:27;;;;;;;4.50;1.83;;;43.80;6.90;;;;;;5114819;28;20833;-71
2023/03/15 09:22:55;;;;;;;4.13;1.80;;;44.40;6.50;;;;;;5114661;28;20925;-71
2023/03/15 09:25:24;;;;;;;5.07;1.93;;;44.70;5.50;;;;;;5114760;28;20530;-72
2023/03/15 09:27:51;;;;;;;4.47;1.83;;;44.70;5.20;;;;;;5114650;28;20913;-71
2023/03/15 09:30:18;;;;;;;5.23;1.83;;;44.80;5.70;;;;;;5114424;28;20576;-71
2023/03/15 09:32:45;;;;;;;3.23;1.60;;;45.10;5.30;;;;;;5114549;28;20996;-71
2023/03/15 09:35:15;;;;;;;4.90;1.97;;;45.20;4.70;;;;;;5114675;28;20526;-72
2023/03/15 09:37:43;;;;;;;4.73;1.63;;;44.20;4.60;;;;;;5114556;28;20993;-71
2023/03/15 09:40:17;;;;;;;3.40;1.53;;;43.70;5.00;;;;;;5114435;28;20568;-71
2023/03/15 09:42:57;;;;;;;2.70;1.30;;;44.00;5.10;;;;;;5114167;28;20477;-71
2023/03/15 09:45:31;;;;;;;2.63;1.40;;;44.50;4.50;;;;;;5113676;28;20941;-71
2023/03/15 09:48:05;;;;;;;3.63;2.17;;;44.20;4.40;;;;;;5114330;28;20521;-72
2023/03/15 09:50:36;;;;;;;6.00;1.90;;;43.40;4.60;;;;;;5113804;28;20482;-71
2023/03/15 09:53:09;;;;;;;5.10;2.00;;;42.70;5.30;;;;;;5114029;28;20473;-71
2023/03/15 09:55:36;;;;;;;5.07;1.83;;;43.20;4.50;;;;;;5114005;28;20437;-71
2023/03/15 09:58:04;;;;;;;3.80;1.43;;;43.00;4.60;;;;;;5114155;28;20534;-71
2023/03/15 10:00:37;;;;;;;2.63;1.50;;;43.40;4.80;;;;;;5113640;28;20577;-71
2023/03/15 10:03:08;;;;;;;3.37;1.37;;;41.70;4.30;;;;;;5113984;28;20572;-71
2023/03/15 10:05:41;;;;;;;4.23;1.30;;;38.50;4.80;;;;;;5114159;28;20438;-71
2023/03/15 10:08:18;;;;;;;3.67;1.53;;;37.00;6.10;;;;;;5114129;28;20830;-70
2023/03/15 10:10:51;;;;;;;5.13;1.40;;;36.60;6.40;;;;;;5113957;28;20766;-71
2023/03/15 10:13:29;;;;;;;3.97;1.30;;;37.60;6.20;;;;;;5113658;28;20480;-71
2023/03/15 10:16:08;;;;;;;3.30;1.50;;;39.60;6.50;;;;;;5113705;28;20478;-71
2023/03/15 10:18:48;;;;;;;2.83;1.37;;;41.40;6.00;;;;;;5113770;28;20469;-71
2023/03/15 10:21:24;;;;;;;4.43;1.47;;;42.90;4.70;;;;;;5113941;28;20470;-71
2023/03/15 10:23:54;;;;;;;2.30;1.10;;;43.60;3.90;;;;;;5113949;28;20494;-71
2023/03/15 10:26:28;;;;;;;3.27;1.30;;;43.90;3.70;;;;;;5113759;28;20469;-71
2023/03/15 10:28:55;;;;;;;3.27;1.40;;;43.90;3.70;;;;;;5113770;28;20776;-71
2023/03/15 10:31:27;;;;;;;3.60;1.57;;;44.50;4.30;;;;;;5113509;28;20469;-71
2023/03/15 10:33:55;;;;;;;4.47;1.50;;;43.20;3.60;;;;;;5113136;28;20430;-71
2023/03/15 10:36:23;;;;;;;2.40;1.20;;;43.00;3.90;;;;;;5113390;28;20434;-71
2023/03/15 10:38:50;;;;;;;3.17;1.53;;;42.50;4.10;;;;;;5113527;28;20496;-71
2023/03/15 10:41:30;;;;;;;2.70;0.87;;;42.50;4.20;;;;;;5113461;28;20466;-72
2023/03/15 10:44:02;;;;;;;2.60;1.20;;;43.50;3.70;;;;;;5113481;28;20521;-71
2023/03/15 10:46:29;;;;;;;2.70;1.10;;;44.10;3.20;;;;;;5113245;28;20422;-71
2023/03/15 10:48:58;;;;;;;3.60;1.90;;;44.80;3.30;;;;;;5113642;28;20434;-71
2023/03/15 10:51:28;;;;;;;2.30;1.30;;;44.50;2.50;;;;;;5113236;28;20525;-70
2023/03/15 10:53:58;;;;;;;2.40;1.00;;;43.10;2.70;;;;;;5113258;28;20962;-70
2023/03/15 10:56:28;;;;;;;3.00;1.40;;;41.40;2.60;;;;;;5113239;28;20441;-70
2023/03/15 10:58:56;;;;;;;2.27;1.23;;;38.90;3.60;;;;;;5112702;28;20422;-70
2023/03/15 11:01:28;;;;;;;3.03;1.13;;;36.30;3.90;;;;;;5113045;28;20561;-70
2023/03/15 11:04:03;;;;;;;4.03;1.17;;;;;;;;;;5114790;28;20492;-72
2023/03/15 11:06:38;;;;;;;3.20;0.90;;;;;;;;;;5117307;28;20524;-72
2023/03/15 11:09:09;;;;;;;2.73;0.70;;;;;;;;;;5117213;28;20433;-72
2023/03/15 11:11:52;;;;;;;2.20;0.93;;;;;;;;;;5117044;28;20438;-72
2023/03/15 11:14:19;;;;;;;2.63;1.00;;;;;;;;;;5116859;28;20916;-72
2023/03/15 11:16:49;;;;;;;3.40;0.90;;;34.50;6.20;;;;;;5117147;28;20454;-73
2023/03/15 11:19:20;;;;;;;2.17;1.07;;;34.70;5.30;;;;;;5116844;28;20478;-71
2023/03/15 11:21:50;;;;;;;3.20;1.33;;;32.60;5.10;;;;;;5117028;28;20533;-71
2023/03/15 11:24:25;;;;;;;2.30;1.00;;;33.10;5.90;;;;;;5116803;28;20908;-73
2023/03/15 11:26:55;;;;;;;2.90;1.00;;;36.10;5.70;;;;;;5116857;28;20911;-71
2023/03/15 11:29:26;;;;;;;5.20;0.93;;;38.20;4.50;;;;;;5116283;28;20483;-71
2023/03/15 11:31:54;;;;;;;4.03;0.80;;;39.80;4.00;;;;;;5116985;28;20495;-71
2023/03/15 11:34:30;;;;;;;3.30;0.80;;;41.20;3.40;;;;;;5116202;27;20445;-71
2023/03/15 11:37:03;;;;;;;1.90;0.80;;;41.80;2.70;;;;;;5136873;27;20532;-72
2023/03/15 11:39:37;;;;;;;2.23;0.90;;;42.40;2.80;;;;;;5136437;27;20468;-71
2023/03/15 11:42:12;;;;;;;2.20;1.00;;;42.80;2.90;;;;;;5136405;27;20508;-71
2023/03/15 11:44:43;;;;;;;2.20;1.20;;;43.50;2.40;;;;;;5136675;27;20789;-71
2023/03/15 11:47:16;;;;;;;2.40;1.07;;;43.40;2.60;;;;;;5136166;27;20480;-71
2023/03/15 11:49:48;;;;;;;2.50;0.73;;;41.90;3.60;;;;;;5136484;27;20843;-71
2023/03/15 11:52:16;;;;;;;2.27;1.10;;;39.70;2.90;;;;;;5134202;27;20755;-71
2023/03/15 11:54:44;;;;;;;2.30;0.90;;;36.30;3.30;;;;;;5136349;27;20437;-73
2023/03/15 11:57:44;;;;;;;2.80;0.70;;;32.80;5.20;;;;;;5133250;27;20866;-73
2023/03/15 12:00:40;;;;;;;4.23;1.10;;;30.70;6.90;;;;;;5121518;27;20478;-73
2023/03/15 12:03:28;;;;;;;2.40;0.70;;;30.10;7.20;;;;;;5098147;28;20438;-72
2023/03/15 12:06:07;;;;;;;3.33;1.00;;;31.00;7.70;;;;;;5114912;28;20438;-73
2023/03/15 12:08:47;;;;;;;2.23;0.80;;;33.70;7.60;;;;;;5114278;28;20480;-70
2023/03/15 12:11:41;;;;;;;2.20;0.90;;;35.00;6.60;;;;;;5115508;28;20479;-71
2023/03/15 12:14:27;;;;;;;4.80;0.90;;;37.00;5.30;;;;;;5115624;28;20489;-71
2023/03/15 12:17:36;;;;;;;2.53;1.30;;;38.80;4.60;;;;;;5115017;28;20521;-71
2023/03/15 12:20:13;;;;;;;2.77;0.90;;;38.50;4.10;;;;;;5114204;28;20556;-71
2023/03/15 12:22:43;;;;;;;2.80;1.13;;;39.00;4.60;;;;;;5103865;28;20431;-71
2023/03/15 12:25:23;;;;;;;2.70;1.10;;;37.40;4.30;;;;;;5097630;28;20951;-70
2023/03/15 12:27:55;;;;;;;5.17;1.27;;;33.80;4.70;;;;;;5103902;28;20443;-70
2023/03/15 12:30:31;;;;;;;2.83;0.93;;;30.10;6.40;;;;;;5113316;28;20473;-73
2023/03/15 12:33:08;;;;;;;2.93;0.80;;;27.50;8.30;;;;;;5109444;28;20426;-72
2023/03/15 12:35:41;;;;;;;3.50;0.97;;;26.10;9.90;;;;;;5112761;28;20453;-72
2023/03/15 12:38:19;;;;;;;2.03;0.90;;;26.80;9.40;;;;;;5115379;28;20441;-72
2023/03/15 12:40:53;;;;;;;4.20;1.00;;;25.40;10.20;;;;;;5114032;28;20481;-72
2023/03/15 12:43:38;;;;;;;2.40;0.90;;;23.70;11.10;;;;;;5114040;28;20986;-71
2023/03/15 12:46:07;;;;;;;3.00;1.50;;;22.00;12.80;;;;;;5097207;28;20438;-72
2023/03/15 12:48:34;;;;;;;3.93;0.87;;;21.30;14.00;;;;;;5108132;28;20449;-72
2023/03/15 12:51:04;;;;;;;2.63;1.13;;;24.30;14.10;;;;;;5115217;28;20496;-72
2023/03/15 12:53:47;;;;;;;3.00;0.80;;;27.10;10.90;;;;;;5115352;28;20434;-72
2023/03/15 12:56:34;;;;;;;2.27;0.93;;;26.30;10.00;;;;;;5115378;28;20844;-73
2023/03/15 12:59:10;;;;;;;2.20;0.90;;;24.10;9.60;;;;;;5114863;28;20438;-72
2023/03/15 13:01:41;;;;;;;3.10;0.90;;;24.60;11.10;;;;;;5131632;27;20541;-72
2023/03/15 13:04:12;;;;;;;1.93;0.93;;;24.90;10.90;;;;;;5135546;27;20482;-72
2023/03/15 13:06:52;;;;;;;2.27;0.80;;;23.60;10.40;;;;;;5135674;27;20529;-72
2023/03/15 13:09:40;;;;;;;2.47;0.80;;;22.20;11.40;;;;;;5135150;27;20991;-72